createdAt,value
2023-03-12T00:00:00.311Z,78
2023-03-12T00:05:00.249Z,78
2023-03-12T00:10:00.233Z,78
2023-03-12T00:15:00.249Z,78
2023-03-12T00:20:00.232Z,78
2023-03-12T00:25:00.246Z,78
2023-03-12T00:30:00.256Z,78
2023-03-12T00:35:00.190Z,78
2023-03-12T00:40:00.186Z,78
2023-03-12T00:45:00.171Z,78
2023-03-12T00:50:00.214Z,78
2023-03-12T00:55:00.241Z,78
2023-03-12T01:00:00.317Z,78
2023-03-12T01:05:00.257Z,78
2023-03-12T01:10:00.251Z,78
2023-03-12T01:15:00.251Z,78
2023-03-12T01:20:00.185Z,78
2023-03-12T01:25:00.220Z,79
2023-03-12T01:30:00.240Z,79
2023-03-12T01:35:00.196Z,79
2023-03-12T01:40:00.223Z,79
2023-03-12T01:45:00.197Z,79
2023-03-12T01:50:00.243Z,79
2023-03-12T01:55:00.279Z,79
2023-03-12T02:00:00.246Z,79
2023-03-12T02:05:00.258Z,79
2023-03-12T02:10:00.226Z,79
2023-03-12T02:15:00.175Z,79
2023-03-12T02:20:00.233Z,79
2023-03-12T02:25:00.260Z,79
2023-03-12T02:30:00.255Z,79
2023-03-12T02:35:00.250Z,79
2023-03-12T02:40:00.185Z,79
2023-03-12T02:45:00.175Z,79
2023-03-12T02:50:00.299Z,79
2023-03-12T02:55:00.239Z,79
2023-03-12T03:00:00.282Z,79
2023-03-12T03:05:00.268Z,79
2023-03-12T03:10:00.219Z,79
2023-03-12T03:15:00.246Z,79
2023-03-12T03:30:00.295Z,79
2023-03-12T03:35:00.180Z,79
2023-03-12T03:40:00.208Z,79
2023-03-12T03:45:00.253Z,79
2023-03-12T03:50:00.230Z,79
2023-03-12T03:55:00.266Z,79
2023-03-12T04:00:03.399Z,79
2023-03-12T04:05:00.190Z,79
2023-03-12T04:10:00.216Z,79
2023-03-12T04:15:00.236Z,79
2023-03-12T04:20:00.222Z,79
2023-03-12T04:25:00.165Z,79
2023-03-12T04:30:00.307Z,79
2023-03-12T04:35:00.201Z,79
2023-03-12T04:40:00.225Z,79
2023-03-12T04:45:00.248Z,79
2023-03-12T04:50:00.222Z,79
2023-03-12T04:55:00.252Z,79
2023-03-12T05:00:00.215Z,79
2023-03-12T05:05:00.232Z,79
2023-03-12T05:10:00.227Z,79
2023-03-12T05:15:00.193Z,79
2023-03-12T05:20:00.222Z,79
2023-03-12T05:25:00.250Z,79
2023-03-12T05:30:00.252Z,79
2023-03-12T05:35:00.319Z,79
2023-03-12T05:40:00.326Z,79
2023-03-12T05:45:00.242Z,79
2023-03-12T05:50:00.258Z,80
2023-03-12T05:55:00.295Z,80
2023-03-12T06:00:00.232Z,80
2023-03-12T06:05:00.172Z,79
2023-03-12T06:10:00.172Z,79
2023-03-12T06:15:00.192Z,79
2023-03-12T06:20:00.205Z,79
2023-03-12T06:25:00.239Z,79
2023-03-12T06:30:00.241Z,79
2023-03-12T06:35:00.236Z,79
2023-03-12T06:40:00.178Z,78
2023-03-12T06:45:00.250Z,78
2023-03-12T06:50:00.219Z,78
2023-03-12T06:55:00.272Z,78
2023-03-12T07:00:00.270Z,77
2023-03-12T07:05:00.296Z,77
2023-03-12T07:10:00.235Z,77
2023-03-12T07:15:00.236Z,77
2023-03-12T07:20:00.295Z,77
2023-03-12T07:25:00.199Z,77
2023-03-12T07:30:00.351Z,77
2023-03-12T07:35:00.278Z,77
2023-03-12T07:40:00.307Z,77
2023-03-12T07:45:00.278Z,76
2023-03-12T07:50:00.247Z,77
2023-03-12T07:55:00.327Z,77
2023-03-12T08:00:00.296Z,77
2023-03-12T08:05:00.277Z,77
2023-03-12T08:10:00.350Z,77
2023-03-12T08:15:00.270Z,78
2023-03-12T08:20:00.193Z,78
2023-03-12T08:25:00.160Z,78
2023-03-12T08:30:00.237Z,78
2023-03-12T08:35:00.292Z,78
2023-03-12T08:40:00.235Z,78
2023-03-12T08:45:00.239Z,78
2023-03-12T08:50:00.228Z,79
2023-03-12T08:55:00.240Z,79
2023-03-12T09:00:00.257Z,79
2023-03-12T09:05:00.280Z,79
2023-03-12T09:10:00.235Z,79
2023-03-12T09:15:04.759Z,79
2023-03-12T09:20:00.321Z,79
2023-03-12T09:25:00.264Z,80
2023-03-12T09:30:01.307Z,80
2023-03-12T09:35:00.257Z,80
2023-03-12T09:40:00.245Z,80
2023-03-12T09:45:00.252Z,80
2023-03-12T09:50:00.249Z,81
2023-03-12T09:55:00.182Z,81
2023-03-12T10:00:00.261Z,81
2023-03-12T10:05:00.534Z,81
2023-03-12T10:10:00.181Z,81
2023-03-12T10:15:00.198Z,81
2023-03-12T10:20:00.261Z,81
2023-03-12T10:25:00.238Z,81
2023-03-12T10:30:00.229Z,81
2023-03-12T10:35:00.258Z,81
2023-03-12T10:40:00.258Z,81
2023-03-12T10:45:00.253Z,81
2023-03-12T10:50:00.187Z,82
2023-03-12T10:55:00.227Z,82
2023-03-12T11:00:00.250Z,82
2023-03-12T11:05:00.268Z,82
2023-03-12T11:10:00.238Z,82
2023-03-12T11:15:00.230Z,83
2023-03-12T11:20:00.226Z,84
2023-03-12T11:25:00.236Z,84
2023-03-12T11:30:00.279Z,84
2023-03-12T11:35:00.244Z,84
2023-03-12T11:40:00.187Z,85
2023-03-12T11:45:00.249Z,85
2023-03-12T11:50:00.185Z,85
2023-03-12T11:55:00.190Z,85
2023-03-12T12:00:00.277Z,85
2023-03-12T12:05:00.245Z,85
2023-03-12T12:10:00.182Z,85
2023-03-12T12:15:00.206Z,85
2023-03-12T12:20:00.227Z,85
2023-03-12T12:25:00.198Z,86
2023-03-12T12:30:00.284Z,86
2023-03-12T12:35:00.265Z,86
2023-03-12T12:40:00.187Z,86
2023-03-12T12:45:00.246Z,86
2023-03-12T12:50:00.221Z,86
2023-03-12T12:55:00.201Z,86
2023-03-12T13:00:00.206Z,86
2023-03-12T13:05:00.255Z,86
2023-03-12T13:10:00.228Z,86
2023-03-12T13:15:00.573Z,86
2023-03-12T13:20:01.629Z,86
2023-03-12T13:25:00.224Z,86
2023-03-12T13:30:00.269Z,86
2023-03-12T13:35:00.311Z,86
2023-03-12T13:40:00.285Z,86
2023-03-12T13:45:00.179Z,86
2023-03-12T13:50:00.192Z,86
2023-03-12T13:55:00.215Z,86
2023-03-12T14:00:00.246Z,86
2023-03-12T14:05:00.360Z,86
2023-03-12T14:10:00.280Z,86
2023-03-12T14:15:00.233Z,86
2023-03-12T14:20:00.262Z,86
2023-03-12T14:25:00.286Z,86
2023-03-12T14:30:00.232Z,86
2023-03-12T14:35:00.258Z,86
2023-03-12T14:40:00.205Z,85
2023-03-12T14:45:00.232Z,85
2023-03-12T14:50:00.230Z,85
2023-03-12T14:55:00.243Z,84
2023-03-12T15:00:00.306Z,84
2023-03-12T15:05:00.385Z,84
2023-03-12T15:10:00.322Z,84
2023-03-12T15:15:00.266Z,84
2023-03-12T15:20:00.246Z,84
2023-03-12T15:25:00.251Z,84
2023-03-12T15:30:00.259Z,84
2023-03-12T15:35:00.601Z,83
2023-03-12T15:40:00.417Z,83
2023-03-12T15:45:00.262Z,83
2023-03-12T15:50:00.225Z,83
2023-03-12T15:55:00.255Z,83
2023-03-12T16:00:00.288Z,83
2023-03-12T16:05:00.236Z,83
2023-03-12T16:10:00.201Z,82
2023-03-12T16:15:00.266Z,82
2023-03-12T16:20:00.393Z,82
2023-03-12T16:25:00.247Z,82
2023-03-12T16:30:00.318Z,82
2023-03-12T16:35:00.243Z,81
2023-03-12T16:40:00.217Z,81
2023-03-12T16:45:00.197Z,80
2023-03-12T16:50:00.246Z,80
2023-03-12T16:55:00.269Z,80
2023-03-12T17:00:00.247Z,80
2023-03-12T17:05:00.262Z,80
2023-03-12T17:10:00.231Z,80
2023-03-12T17:15:00.209Z,80
2023-03-12T17:20:00.498Z,79
2023-03-12T17:25:00.269Z,79
2023-03-12T17:30:00.225Z,79
2023-03-12T17:35:00.278Z,78
2023-03-12T17:40:00.224Z,78
2023-03-12T17:45:00.274Z,77
2023-03-12T17:50:00.219Z,77
2023-03-12T17:55:00.235Z,76
2023-03-12T18:00:00.254Z,76
2023-03-12T18:05:00.358Z,75
2023-03-12T18:10:00.227Z,75
2023-03-12T18:15:00.231Z,75
2023-03-12T18:20:00.259Z,75
2023-03-12T18:25:00.255Z,75
2023-03-12T18:30:00.265Z,75
2023-03-12T18:35:00.242Z,75
2023-03-12T18:40:00.209Z,75
2023-03-12T18:45:00.300Z,75
2023-03-12T18:50:00.236Z,75
2023-03-12T18:55:00.234Z,75
2023-03-12T19:00:00.252Z,75
2023-03-12T19:05:00.276Z,75
2023-03-12T19:10:00.228Z,75
2023-03-12T19:15:00.195Z,75
2023-03-12T19:20:00.240Z,75
2023-03-12T19:25:00.259Z,75
2023-03-12T19:30:00.293Z,75
2023-03-12T19:35:00.264Z,75
2023-03-12T19:40:00.239Z,75
2023-03-12T19:45:00.196Z,75
2023-03-12T19:50:00.487Z,75
2023-03-12T19:55:05.476Z,75
2023-03-12T20:00:00.282Z,75
2023-03-12T20:05:00.189Z,75
2023-03-12T20:10:00.247Z,75
2023-03-12T20:15:00.221Z,75
2023-03-12T20:20:00.213Z,75
2023-03-12T20:25:00.252Z,75
2023-03-12T20:30:00.203Z,75
2023-03-12T20:35:00.187Z,75
2023-03-12T20:40:00.206Z,75
2023-03-12T20:45:00.167Z,75
2023-03-12T20:50:00.180Z,75
2023-03-12T20:55:00.182Z,75
2023-03-12T21:00:00.227Z,75
2023-03-12T21:05:00.311Z,75
2023-03-12T21:10:00.229Z,75
2023-03-12T21:15:00.227Z,75
2023-03-12T21:20:00.183Z,75
2023-03-12T21:25:00.181Z,75
2023-03-12T21:30:00.220Z,75
2023-03-12T21:35:00.264Z,75
2023-03-12T21:40:00.192Z,75
2023-03-12T21:45:00.199Z,75
2023-03-12T21:50:00.235Z,75
2023-03-12T21:55:00.265Z,75
2023-03-12T22:00:00.236Z,75
2023-03-12T22:05:00.283Z,75
2023-03-12T22:10:00.251Z,75
2023-03-12T22:15:00.236Z,75
2023-03-12T22:20:00.232Z,75
2023-03-12T22:25:00.289Z,75
2023-03-12T22:30:00.258Z,75
2023-03-12T22:35:00.265Z,75
2023-03-12T22:40:00.242Z,75
2023-03-12T22:45:00.248Z,75
2023-03-12T22:50:00.182Z,75
2023-03-12T22:55:00.216Z,75
2023-03-12T23:00:05.150Z,75
2023-03-12T23:05:00.369Z,75
2023-03-12T23:10:00.208Z,75
2023-03-12T23:15:00.275Z,75
2023-03-12T23:20:00.231Z,75
2023-03-12T23:25:00.282Z,75
2023-03-12T23:30:00.272Z,75
2023-03-12T23:35:00.188Z,75
2023-03-12T23:40:00.260Z,75
2023-03-12T23:45:00.234Z,75
2023-03-12T23:50:00.238Z,75
2023-03-12T23:55:00.251Z,75
